メインページ
METAR-TAF:

METAR-TAF

空港 :

McGuire Air Force Base

Wrightstown, ニュージャージー州, アメリカ合衆国

緯度: 40-01N, 経度: 074-36W, 海抜: 41m

現時点の気象観測

当レポートは17分前の23:56(UTC)に作成
北/北西の風 3kt
気温 20°C
湿度 88%
気圧 1016 hPa
視程: 16.1km
高度20000ftの千切れ雲あり

METAR: KWRI 232356Z 33003KT 10SM BKN200 20/18 A3001 RMK AO2A SLP161 60001 T01960179 10209 20193 55002 $

時間: 20:13 (00:13 UTC)

予報

当レポートは6時間0分前の18:13(UTC)に作成
予報は23日の 18時(UTC)から 24日の 24時(UTC)まで有効
の風 8kt
視程: 8000m
高度3000ftの千切れ雲あり
弱いにわか雨
23日の 22時(UTC)から 23日の 23時(UTC)まで徐々に
北/北西の風 5kt
視程10km以上
高度6000ftの雲は散在している
高度15000ftの千切れ雲あり
24日の 12時(UTC)から 24日の 13時(UTC)まで徐々に
の風 10kt、最大15ktの突風を伴う
視程10km以上
高度6000ftの雲は散在している
24日の 17時(UTC)から 24日の 18時(UTC)まで徐々に
北東の風 8kt
視程10km以上
高度6000ftの雲はほとんどない

TAF: KWRI 231813Z 2318/2424 36008KT 8000 -SHRA BKN030 QNH2991INS BECMG 2322/2323 34005KT 9999 NSW SCT060 BKN150 QNH3000INS BECMG 2412/2413 01010G15KT 9999 SCT060 QNH3012INS BECMG 2417/2418 04008KT 9999 FEW060 QNH3017INS TX24/2418Z TN17/2410Z

4,000以上の空港の気象観測と天気予報(METAR報とTAF報)

利用可能な観測所は地図上に黄色い丸と赤い丸で示す。

丸の上にカーソルを重ねると観測所名を参照できる。

次にクリックすると気象観測と天気予報を参照できる。

マップの切り替え:黒色「×」印の緑ボタンをクリックして拡大、「-」印の緑ボタンをクリックして縮小、緑色の三角印をクリックして隣りの地図に切り替え


METAR-TAF: